createdAt,value
2023-03-15T00:01:47.770Z,79.20
2023-03-15T00:04:14.488Z,79.51
2023-03-15T00:06:41.151Z,80.10
2023-03-15T00:09:08.117Z,80.01
2023-03-15T00:11:34.789Z,79.76
2023-03-15T00:14:02.390Z,80.28
2023-03-15T00:16:29.044Z,80.55
2023-03-15T00:18:56.268Z,80.80
2023-03-15T00:21:23.563Z,81.26
2023-03-15T00:23:50.651Z,81.24
2023-03-15T00:26:17.212Z,80.76
2023-03-15T00:28:44.012Z,80.65
2023-03-15T00:31:23.606Z,80.89
2023-03-15T00:33:53.708Z,81.19
2023-03-15T00:36:24.237Z,81.51
2023-03-15T00:38:53.383Z,81.91
2023-03-15T00:41:21.323Z,82.41
2023-03-15T00:43:47.862Z,82.09
2023-03-15T00:46:16.732Z,82.75
2023-03-15T00:48:43.306Z,82.83
2023-03-15T00:51:15.959Z,82.82
2023-03-15T00:53:44.399Z,82.77
2023-03-15T00:56:14.048Z,82.35
2023-03-15T00:58:41.248Z,82.97
2023-03-15T01:01:12.817Z,82.57
2023-03-15T01:03:40.807Z,82.65
2023-03-15T01:06:09.900Z,82.60
2023-03-15T01:08:36.420Z,82.18
2023-03-15T01:11:08.766Z,82.51
2023-03-15T01:13:36.038Z,82.95
2023-03-15T01:16:03.423Z,81.95
2023-03-15T01:18:31.010Z,82.38
2023-03-15T01:20:58.040Z,82.42
2023-03-15T01:23:25.025Z,82.69
2023-03-15T01:25:51.642Z,82.22
2023-03-15T01:28:18.132Z,82.41
2023-03-15T01:30:52.613Z,82.63
2023-03-15T01:33:20.366Z,82.80
2023-03-15T01:35:47.223Z,82.77
2023-03-15T01:38:13.768Z,82.26
2023-03-15T01:40:46.935Z,82.88
2023-03-15T01:43:22.555Z,83.12
2023-03-15T01:46:23.665Z,82.16
2023-03-15T01:48:57.310Z,82.66
2023-03-15T01:51:39.304Z,82.46
2023-03-15T01:54:05.704Z,82.06
2023-03-15T01:56:34.892Z,81.99
2023-03-15T01:59:05.003Z,81.51
2023-03-15T02:01:35.521Z,81.40
2023-03-15T02:04:10.728Z,80.94
2023-03-15T02:06:37.509Z,80.99
2023-03-15T02:09:15.036Z,80.83
2023-03-15T02:11:42.539Z,81.23
2023-03-15T02:14:13.419Z,80.32
2023-03-15T02:16:40.021Z,80.70
2023-03-15T02:19:11.842Z,80.18
2023-03-15T02:21:44.170Z,79.95
2023-03-15T02:24:58.194Z,79.76
2023-03-15T02:27:36.098Z,79.97
2023-03-15T02:30:04.897Z,79.70
2023-03-15T02:32:31.850Z,79.23
2023-03-15T02:34:58.381Z,79.42
2023-03-15T02:37:25.359Z,79.19
2023-03-15T02:39:51.898Z,79.88
2023-03-15T02:42:19.328Z,79.94
2023-03-15T02:44:49.094Z,80.21
2023-03-15T02:47:20.367Z,79.76
2023-03-15T02:49:53.806Z,80.27
2023-03-15T02:52:21.494Z,80.47
2023-03-15T02:54:51.563Z,80.97
2023-03-15T02:57:19.738Z,81.63
2023-03-15T02:59:46.352Z,81.40
2023-03-15T03:02:13.153Z,81.87
2023-03-15T03:04:40.111Z,81.82
2023-03-15T03:07:06.657Z,81.78
2023-03-15T03:09:33.366Z,82.30
2023-03-15T03:11:59.994Z,82.28
2023-03-15T03:14:26.590Z,82.34
2023-03-15T03:16:53.199Z,82.53
2023-03-15T03:19:19.684Z,82.93
2023-03-15T03:21:46.147Z,83.13
2023-03-15T03:24:16.177Z,83.45
2023-03-15T03:26:46.122Z,83.13
2023-03-15T03:29:16.471Z,82.94
2023-03-15T03:31:44.092Z,82.89
2023-03-15T03:34:12.132Z,83.50
2023-03-15T03:36:38.604Z,83.36
2023-03-15T03:39:05.171Z,83.13
2023-03-15T03:41:31.868Z,83.90
2023-03-15T03:43:58.325Z,83.93
2023-03-15T03:46:24.891Z,84.35
2023-03-15T03:48:51.423Z,84.69
2023-03-15T03:51:17.881Z,84.93
2023-03-15T03:53:44.348Z,85.31
2023-03-15T03:56:10.850Z,85.69
2023-03-15T03:58:37.390Z,86.73
2023-03-15T04:01:04.138Z,86.96
2023-03-15T04:03:31.086Z,87.49
2023-03-15T04:05:59.157Z,88.16
2023-03-15T04:08:26.990Z,88.85
2023-03-15T04:10:55.322Z,89.55
2023-03-15T04:13:22.798Z,89.84
2023-03-15T04:15:50.575Z,90.56
2023-03-15T04:18:17.974Z,90.91
2023-03-15T04:20:46.741Z,91.60
2023-03-15T04:23:19.032Z,92.49
2023-03-15T04:25:49.710Z,93.21
2023-03-15T04:28:16.857Z,93.76
2023-03-15T04:30:44.434Z,94.44
2023-03-15T04:33:11.384Z,94.43
2023-03-15T04:35:39.225Z,94.60
2023-03-15T04:38:06.694Z,95.07
2023-03-15T04:40:35.125Z,95.15
2023-03-15T04:43:06.329Z,95.88
2023-03-15T04:45:32.993Z,95.94
2023-03-15T04:48:01.697Z,96.21
2023-03-15T04:50:29.866Z,96.72
2023-03-15T04:52:58.783Z,97.66
2023-03-15T04:55:25.555Z,97.41
2023-03-15T04:57:52.100Z,98.09
2023-03-15T05:00:18.886Z,99.43
2023-03-15T05:02:47.542Z,99.48
2023-03-15T05:05:14.013Z,100.00
2023-03-15T05:07:42.036Z,100.00
2023-03-15T05:10:09.058Z,100.00
2023-03-15T05:12:35.535Z,100.00
2023-03-15T05:15:02.046Z,100.00
2023-03-15T05:17:28.609Z,100.00
2023-03-15T05:19:55.045Z,100.00
2023-03-15T05:22:25.680Z,100.00
2023-03-15T05:24:53.800Z,100.00
2023-03-15T05:27:20.858Z,100.00
2023-03-15T05:29:47.728Z,100.00
2023-03-15T05:32:14.361Z,100.00
2023-03-15T05:34:40.902Z,100.00
2023-03-15T05:37:12.321Z,100.00
2023-03-15T05:39:38.831Z,100.00
2023-03-15T05:42:06.005Z,100.00
2023-03-15T05:44:32.474Z,100.00
2023-03-15T05:46:58.962Z,100.00
2023-03-15T05:49:25.506Z,100.00
2023-03-15T05:51:51.987Z,100.00
2023-03-15T05:54:18.475Z,100.00
2023-03-15T05:56:44.972Z,100.00
2023-03-15T05:59:11.574Z,100.00
2023-03-15T06:01:38.055Z,100.00
2023-03-15T06:04:07.476Z,100.00
2023-03-15T06:06:34.668Z,100.00
2023-03-15T06:09:01.176Z,100.00
2023-03-15T06:11:27.645Z,100.00
2023-03-15T06:13:54.188Z,100.00
2023-03-15T06:16:20.747Z,100.00
2023-03-15T06:18:47.383Z,100.00
2023-03-15T06:21:13.837Z,100.00
2023-03-15T06:23:40.575Z,100.00
2023-03-15T06:26:07.064Z,100.00
2023-03-15T06:28:33.647Z,100.00
2023-03-15T06:31:08.321Z,100.00
2023-03-15T06:33:35.334Z,100.00
2023-03-15T06:36:01.860Z,100.00
2023-03-15T06:38:28.488Z,100.00
2023-03-15T06:41:01.179Z,100.00
2023-03-15T06:43:28.554Z,100.00
2023-03-15T06:45:56.716Z,100.00
2023-03-15T06:48:23.247Z,100.00
2023-03-15T06:50:49.872Z,99.78
2023-03-15T06:53:16.584Z,98.25
2023-03-15T06:55:43.208Z,96.98
2023-03-15T06:58:09.725Z,96.09
2023-03-15T07:00:36.596Z,95.76
2023-03-15T07:03:06.326Z,94.82
2023-03-15T07:05:32.859Z,95.18
2023-03-15T07:07:59.432Z,93.81
2023-03-15T07:10:26.051Z,94.25
2023-03-15T07:12:52.621Z,94.87
2023-03-15T07:15:19.145Z,94.60
2023-03-15T07:17:45.686Z,95.17
2023-03-15T07:20:12.781Z,95.35
2023-03-15T07:22:39.232Z,95.29
2023-03-15T07:25:07.498Z,95.85
2023-03-15T07:27:33.978Z,95.57
2023-03-15T07:30:01.213Z,95.88
2023-03-15T07:32:27.911Z,95.83
2023-03-15T07:34:58.326Z,94.87
2023-03-15T07:37:24.912Z,94.64
2023-03-15T07:39:51.414Z,94.90
2023-03-15T07:42:19.794Z,95.18
2023-03-15T07:44:46.391Z,94.90
2023-03-15T07:47:13.018Z,94.87
2023-03-15T07:49:45.834Z,94.42
2023-03-15T07:52:12.439Z,93.83
2023-03-15T07:54:39.130Z,93.50
2023-03-15T07:57:05.965Z,92.90
2023-03-15T07:59:32.524Z,92.36
2023-03-15T08:02:01.600Z,91.63
2023-03-15T08:04:29.458Z,92.08
2023-03-15T08:06:56.178Z,91.53
2023-03-15T08:09:23.162Z,92.37
2023-03-15T08:11:49.694Z,92.90
2023-03-15T08:14:16.163Z,92.55
2023-03-15T08:16:42.737Z,92.96
2023-03-15T08:19:09.265Z,92.72
2023-03-15T08:21:35.789Z,92.31
2023-03-15T08:24:02.409Z,92.07
2023-03-15T08:26:28.933Z,90.80
2023-03-15T08:28:55.396Z,91.06
2023-03-15T08:31:22.035Z,89.96
2023-03-15T08:33:48.524Z,89.49
2023-03-15T08:36:15.040Z,87.87
2023-03-15T08:38:41.803Z,88.92
2023-03-15T08:41:08.301Z,87.87
2023-03-15T08:43:34.743Z,87.88
2023-03-15T08:46:01.989Z,87.54
2023-03-15T08:48:29.357Z,86.79
2023-03-15T08:50:57.403Z,85.80
2023-03-15T08:53:23.861Z,84.87
2023-03-15T08:55:50.601Z,85.26
2023-03-15T08:58:17.121Z,84.61
2023-03-15T09:00:47.116Z,85.29
2023-03-15T09:03:14.577Z,86.73
2023-03-15T09:05:41.251Z,86.46
2023-03-15T09:08:07.726Z,86.76
2023-03-15T09:10:34.449Z,87.07
2023-03-15T09:13:00.919Z,87.04
2023-03-15T09:15:27.540Z,86.16
2023-03-15T09:17:54.097Z,85.79
2023-03-15T09:20:23.004Z,85.81
2023-03-15T09:22:52.476Z,85.71
2023-03-15T09:25:19.655Z,85.61
2023-03-15T09:27:46.333Z,85.14
2023-03-15T09:30:14.024Z,84.92
2023-03-15T09:32:40.929Z,85.01
2023-03-15T09:35:10.408Z,86.01
2023-03-15T09:37:36.917Z,87.02
2023-03-15T09:40:04.708Z,87.83
2023-03-15T09:42:37.053Z,88.08
2023-03-15T09:45:13.027Z,88.28
2023-03-15T09:48:03.043Z,88.71
2023-03-15T09:50:34.146Z,88.36
2023-03-15T09:53:24.710Z,86.20
2023-03-15T09:55:51.654Z,83.84
2023-03-15T09:58:32.727Z,81.04
2023-03-15T10:01:19.311Z,82.40
2023-03-15T10:03:51.373Z,80.91
2023-03-15T10:06:26.554Z,80.90
2023-03-15T10:09:16.439Z,78.52
2023-03-15T10:11:50.695Z,78.95
2023-03-15T10:14:41.891Z,78.16
2023-03-15T10:17:13.914Z,76.28
2023-03-15T10:19:50.431Z,76.80
2023-03-15T10:22:27.984Z,73.56
2023-03-15T10:25:18.473Z,75.83
2023-03-15T10:27:53.102Z,75.43
2023-03-15T10:30:24.968Z,76.40
2023-03-15T10:33:19.397Z,74.58
2023-03-15T10:35:45.976Z,69.94
2023-03-15T10:38:20.979Z,69.97
2023-03-15T10:53:11.234Z,69.67
2023-03-15T10:55:43.445Z,73.40
2023-03-15T10:58:39.011Z,69.91
2023-03-15T11:01:08.594Z,68.08
2023-03-15T11:03:37.316Z,69.67
2023-03-15T11:06:19.978Z,66.23
2023-03-15T11:08:46.527Z,68.68
2023-03-15T11:11:13.032Z,69.16
2023-03-15T11:13:41.796Z,69.20
2023-03-15T11:16:33.716Z,67.89
2023-03-15T11:19:03.470Z,70.32
2023-03-15T11:21:34.546Z,70.37
2023-03-15T11:24:03.289Z,69.12
2023-03-15T11:26:35.808Z,72.48
2023-03-15T11:29:14.737Z,75.83
2023-03-15T11:31:41.311Z,79.61
2023-03-15T11:34:22.107Z,82.00
2023-03-15T11:37:05.317Z,82.35
2023-03-15T11:39:45.449Z,83.36
2023-03-15T11:42:19.479Z,82.21
2023-03-15T11:44:50.131Z,79.20
2023-03-15T11:47:28.206Z,77.96
2023-03-15T11:49:58.253Z,78.47
2023-03-15T11:52:29.567Z,78.53
2023-03-15T11:55:01.126Z,80.14
2023-03-15T11:57:55.169Z,80.06
2023-03-15T12:00:26.823Z,80.84
2023-03-15T12:02:59.517Z,80.95
2023-03-15T12:05:52.095Z,80.32
2023-03-15T12:08:48.397Z,80.52
2023-03-15T12:11:21.026Z,81.16
2023-03-15T12:13:53.738Z,77.86
2023-03-15T12:16:22.289Z,77.94
2023-03-15T12:18:49.880Z,76.08
2023-03-15T12:21:26.640Z,77.26
2023-03-15T12:24:01.505Z,73.81
2023-03-15T12:26:38.138Z,72.56
2023-03-15T12:29:11.912Z,72.70
2023-03-15T12:31:54.347Z,72.79
2023-03-15T12:34:49.376Z,71.07
2023-03-15T12:37:23.213Z,71.40
2023-03-15T12:40:27.047Z,70.67
2023-03-15T12:42:57.326Z,71.06
2023-03-15T12:45:37.359Z,70.87
2023-03-15T12:48:06.565Z,69.87
2023-03-15T12:50:39.169Z,71.34
2023-03-15T12:53:27.372Z,71.28
2023-03-15T12:56:02.853Z,71.40
2023-03-15T12:58:41.163Z,72.84
2023-03-15T13:01:08.289Z,73.04
2023-03-15T13:03:36.219Z,72.97
2023-03-15T13:06:21.800Z,71.30
2023-03-15T13:08:54.000Z,69.47
2023-03-15T13:11:25.743Z,68.83
2023-03-15T13:14:29.689Z,69.17
2023-03-15T13:17:17.866Z,69.68
2023-03-15T13:19:55.020Z,70.35
2023-03-15T13:23:18.756Z,69.29
2023-03-15T13:26:05.465Z,69.25
2023-03-15T13:28:38.157Z,67.27
2023-03-15T13:31:24.735Z,66.84
2023-03-15T13:34:02.306Z,65.69
2023-03-15T13:36:53.430Z,63.80
2023-03-15T13:39:24.924Z,63.28
2023-03-15T13:41:59.544Z,71.38
2023-03-15T13:44:30.317Z,76.36
2023-03-15T13:46:58.126Z,87.37
2023-03-15T13:49:29.890Z,91.77
2023-03-15T13:51:56.604Z,90.24
2023-03-15T13:54:30.502Z,90.15
2023-03-15T13:57:03.549Z,91.47
2023-03-15T13:59:43.077Z,90.22
2023-03-15T14:02:36.709Z,88.89
2023-03-15T14:05:14.184Z,82.05
2023-03-15T14:07:48.442Z,77.14
2023-03-15T14:10:33.671Z,82.32
2023-03-15T14:13:21.333Z,91.39
2023-03-15T14:15:51.394Z,95.40
2023-03-15T14:18:23.569Z,95.63
2023-03-15T14:21:20.423Z,99.38
2023-03-15T14:23:49.129Z,98.07
2023-03-15T14:26:21.522Z,99.58
2023-03-15T14:29:05.112Z,99.04
2023-03-15T14:31:39.840Z,97.36
2023-03-15T14:34:16.455Z,96.87
2023-03-15T14:36:45.410Z,96.73
2023-03-15T14:39:19.365Z,94.98
2023-03-15T14:41:46.143Z,93.57
2023-03-15T14:44:12.682Z,92.34
2023-03-15T14:46:42.414Z,92.20
2023-03-15T14:49:26.399Z,94.60
2023-03-15T14:52:04.145Z,94.11
2023-03-15T14:54:32.219Z,91.80
2023-03-15T14:56:58.714Z,90.08
2023-03-15T14:59:25.288Z,87.01
2023-03-15T15:01:55.215Z,85.50
2023-03-15T15:04:22.206Z,86.68
2023-03-15T15:06:53.037Z,85.26
2023-03-15T15:09:23.849Z,87.62
2023-03-15T15:11:51.274Z,85.97
2023-03-15T15:14:18.505Z,85.57
2023-03-15T15:16:45.910Z,84.33
2023-03-15T15:19:12.827Z,84.46
2023-03-15T15:21:40.008Z,80.18
2023-03-15T15:24:18.568Z,81.07
2023-03-15T15:26:45.422Z,81.77
2023-03-15T15:29:16.397Z,79.82
2023-03-15T15:31:44.189Z,78.10
2023-03-15T15:34:12.174Z,76.63
2023-03-15T15:36:43.915Z,77.62
2023-03-15T15:39:30.071Z,77.37
2023-03-15T15:41:56.664Z,76.51
2023-03-15T15:44:25.655Z,78.43
2023-03-15T15:46:52.446Z,79.04
2023-03-15T15:49:19.725Z,79.57
2023-03-15T15:51:51.340Z,78.20
2023-03-15T15:54:21.849Z,77.59
2023-03-15T15:56:51.344Z,80.04
2023-03-15T15:59:19.231Z,78.94
2023-03-15T16:01:59.689Z,79.66
2023-03-15T16:04:27.796Z,79.60
2023-03-15T16:06:56.876Z,79.17
2023-03-15T16:09:27.413Z,78.11
2023-03-15T16:11:53.908Z,76.92
2023-03-15T16:14:20.803Z,77.24
2023-03-15T16:16:48.480Z,77.69
2023-03-15T16:19:15.036Z,77.17
2023-03-15T16:21:47.405Z,77.38
2023-03-15T16:24:19.569Z,75.11
2023-03-15T16:26:47.738Z,76.40
2023-03-15T16:29:18.967Z,74.37
2023-03-15T16:31:46.685Z,75.16
2023-03-15T16:34:15.283Z,76.77
2023-03-15T16:36:43.933Z,77.17
2023-03-15T16:39:12.760Z,77.62
2023-03-15T16:41:40.191Z,77.83
2023-03-15T16:44:15.571Z,77.76
2023-03-15T16:46:42.228Z,77.37
2023-03-15T16:49:09.729Z,78.46
2023-03-15T16:51:39.195Z,78.78
2023-03-15T16:54:19.590Z,78.40
2023-03-15T16:56:51.257Z,77.96
2023-03-15T16:59:17.964Z,78.11
2023-03-15T17:01:45.414Z,78.20
2023-03-15T17:04:15.675Z,78.89
2023-03-15T17:06:45.359Z,78.83
2023-03-15T17:09:15.731Z,79.04
2023-03-15T17:11:45.352Z,79.53
2023-03-15T17:14:34.521Z,79.72
2023-03-15T17:17:01.079Z,79.98
2023-03-15T17:19:27.586Z,80.13
2023-03-15T17:21:54.052Z,79.88
2023-03-15T17:24:20.535Z,80.73
2023-03-15T17:26:49.211Z,81.30
2023-03-15T17:29:15.935Z,81.43
2023-03-15T17:31:44.628Z,81.15
2023-03-15T17:34:11.229Z,81.44
2023-03-15T17:36:38.031Z,81.59
2023-03-15T17:39:06.737Z,82.58
2023-03-15T17:41:36.992Z,82.92
2023-03-15T17:44:04.609Z,83.38
2023-03-15T17:46:33.321Z,84.42
2023-03-15T17:49:01.128Z,84.74
2023-03-15T17:51:30.454Z,84.65
2023-03-15T17:53:59.303Z,85.16
2023-03-15T17:56:26.715Z,84.81
2023-03-15T17:58:53.315Z,85.38
2023-03-15T18:01:23.219Z,85.55
2023-03-15T18:03:50.625Z,85.39
2023-03-15T18:06:19.387Z,85.96
2023-03-15T18:08:46.656Z,86.06
2023-03-15T18:11:22.995Z,86.28
2023-03-15T18:13:49.490Z,86.34
2023-03-15T18:16:16.077Z,86.52
2023-03-15T18:18:42.637Z,86.96
2023-03-15T18:21:14.441Z,87.13
2023-03-15T18:23:41.377Z,86.36
2023-03-15T18:26:08.917Z,86.96
2023-03-15T18:28:35.549Z,86.83
2023-03-15T18:31:02.241Z,87.00
2023-03-15T18:33:30.277Z,86.03
2023-03-15T18:35:57.261Z,85.38
2023-03-15T18:38:23.794Z,84.89
2023-03-15T18:40:51.765Z,84.38
2023-03-15T18:43:18.428Z,84.93
2023-03-15T18:45:44.991Z,85.24
2023-03-15T18:48:11.504Z,85.48
2023-03-15T18:50:37.965Z,85.37
2023-03-15T18:53:06.139Z,84.70
2023-03-15T18:55:32.867Z,84.78
2023-03-15T18:57:59.374Z,84.63
2023-03-15T19:00:29.508Z,84.27
2023-03-15T19:02:58.765Z,84.64
2023-03-15T19:05:26.313Z,84.38
2023-03-15T19:07:52.882Z,84.76
2023-03-15T19:10:20.886Z,84.34
2023-03-15T19:12:48.646Z,84.22
2023-03-15T19:15:17.574Z,84.13
2023-03-15T19:17:46.796Z,84.05
2023-03-15T19:20:17.112Z,84.33
2023-03-15T19:22:45.122Z,84.29
2023-03-15T19:25:13.885Z,84.31
2023-03-15T19:27:42.076Z,84.69
2023-03-15T19:30:16.918Z,84.98
2023-03-15T19:32:45.865Z,85.14
2023-03-15T19:35:12.597Z,85.42
2023-03-15T19:37:39.181Z,84.62
2023-03-15T19:40:09.361Z,85.12
2023-03-15T19:42:35.979Z,84.89
2023-03-15T19:45:03.044Z,85.31
2023-03-15T19:47:29.537Z,85.63
2023-03-15T19:50:02.694Z,85.17
2023-03-15T19:52:29.424Z,85.63
2023-03-15T19:54:56.478Z,85.18
2023-03-15T19:57:22.983Z,85.44
2023-03-15T19:59:49.679Z,85.40
2023-03-15T20:02:16.161Z,85.49
2023-03-15T20:04:42.812Z,85.56
2023-03-15T20:07:11.115Z,85.47
2023-03-15T20:09:39.601Z,85.28
2023-03-15T20:12:07.113Z,85.37
2023-03-15T20:14:34.107Z,85.33
2023-03-15T20:17:00.985Z,84.99
2023-03-15T20:19:27.809Z,85.39
2023-03-15T20:21:54.268Z,85.25
2023-03-15T20:24:20.736Z,85.29
2023-03-15T20:26:47.181Z,84.96
2023-03-15T20:29:13.769Z,84.95
2023-03-15T20:31:40.259Z,84.77
2023-03-15T20:34:08.999Z,84.18
2023-03-15T20:36:36.152Z,84.63
2023-03-15T20:39:04.680Z,84.53
2023-03-15T20:41:34.067Z,84.47
2023-03-15T20:44:01.285Z,84.95
2023-03-15T20:46:29.512Z,84.97
2023-03-15T20:48:56.118Z,85.13
2023-03-15T20:51:22.659Z,85.04
2023-03-15T20:53:49.450Z,85.15
2023-03-15T20:56:20.531Z,85.77
2023-03-15T20:58:47.528Z,85.45
2023-03-15T21:01:16.430Z,85.40
2023-03-15T21:03:44.725Z,85.78
2023-03-15T21:06:13.153Z,85.86
2023-03-15T21:08:44.072Z,85.92
2023-03-15T21:11:10.566Z,85.90
2023-03-15T21:13:37.256Z,85.69
2023-03-15T21:16:04.708Z,85.76
2023-03-15T21:18:32.957Z,86.22
2023-03-15T21:21:08.886Z,86.40
2023-03-15T21:23:35.701Z,86.29
2023-03-15T21:26:05.050Z,86.35
2023-03-15T21:28:32.272Z,86.72
2023-03-15T21:31:02.266Z,86.78
2023-03-15T21:33:30.099Z,86.74
2023-03-15T21:35:59.308Z,87.51
2023-03-15T21:38:31.454Z,87.06
2023-03-15T21:41:02.555Z,86.98
2023-03-15T21:43:31.843Z,86.94
2023-03-15T21:46:04.155Z,87.47
2023-03-15T21:48:32.194Z,87.54
2023-03-15T21:51:02.171Z,87.63
2023-03-15T21:53:31.125Z,87.44
2023-03-15T21:55:58.758Z,87.91
2023-03-15T21:58:26.118Z,88.43
2023-03-15T22:01:01.255Z,88.77
2023-03-15T22:03:28.502Z,88.59
2023-03-15T22:05:55.024Z,88.78
2023-03-15T22:08:21.480Z,88.82
2023-03-15T22:10:52.206Z,89.14
2023-03-15T22:13:21.920Z,89.27
2023-03-15T22:15:48.425Z,89.25
2023-03-15T22:18:17.605Z,89.01
2023-03-15T22:20:47.364Z,89.09
2023-03-15T22:23:13.869Z,89.51
2023-03-15T22:25:40.474Z,89.81
2023-03-15T22:28:11.510Z,89.66
2023-03-15T22:30:42.866Z,89.75
2023-03-15T22:33:12.864Z,89.83
2023-03-15T22:35:42.168Z,90.01
2023-03-15T22:38:12.493Z,89.79
2023-03-15T22:40:40.724Z,89.81
2023-03-15T22:43:09.090Z,90.05
2023-03-15T22:45:36.565Z,90.26
2023-03-15T22:48:06.551Z,89.95
2023-03-15T22:50:33.106Z,89.52
2023-03-15T22:53:04.346Z,89.77
2023-03-15T22:55:30.784Z,89.71
2023-03-15T22:57:57.281Z,89.33
2023-03-15T23:00:24.817Z,89.20
2023-03-15T23:02:56.697Z,89.03
2023-03-15T23:05:26.922Z,89.24
2023-03-15T23:07:53.404Z,89.04
2023-03-15T23:10:20.217Z,89.21
2023-03-15T23:12:49.767Z,89.14
2023-03-15T23:15:16.269Z,89.06
2023-03-15T23:17:46.613Z,89.33
2023-03-15T23:20:15.363Z,88.93
2023-03-15T23:22:45.519Z,88.47
2023-03-15T23:25:22.544Z,88.38
2023-03-15T23:27:53.434Z,88.17
2023-03-15T23:30:20.046Z,88.57
2023-03-15T23:32:48.759Z,88.33
2023-03-15T23:35:15.497Z,88.03
2023-03-15T23:37:45.011Z,87.99
2023-03-15T23:40:15.092Z,87.91
2023-03-15T23:42:43.428Z,87.95
2023-03-15T23:45:17.743Z,87.75
2023-03-15T23:47:47.107Z,87.88
2023-03-15T23:50:16.091Z,88.06
2023-03-15T23:52:48.035Z,88.14
2023-03-15T23:55:14.400Z,88.18
2023-03-15T23:57:41.431Z,88.32
